createdAt,value
2022-12-23T00:00:25.721Z,0
2022-12-23T00:01:41.847Z,0
2022-12-23T00:02:57.967Z,0
2022-12-23T00:04:15.073Z,0
2022-12-23T00:05:31.199Z,0
2022-12-23T00:06:47.320Z,0
2022-12-23T00:08:04.425Z,0
2022-12-23T00:09:21.530Z,0
2022-12-23T00:10:38.634Z,0
2022-12-23T00:11:55.739Z,0
2022-12-23T00:13:12.844Z,0
2022-12-23T00:14:29.949Z,0
2022-12-23T00:15:47.053Z,0
2022-12-23T00:17:04.158Z,0
2022-12-23T00:18:21.263Z,0
2022-12-23T00:19:38.368Z,0
2022-12-23T00:20:55.473Z,0
2022-12-23T00:22:12.577Z,0
2022-12-23T00:23:29.682Z,0
2022-12-23T00:24:45.803Z,0
2022-12-23T00:26:02.908Z,0
2022-12-23T00:27:20.012Z,0
2022-12-23T00:28:37.117Z,0
2022-12-23T00:29:54.222Z,0
2022-12-23T00:31:11.327Z,0
2022-12-23T00:32:28.431Z,0
2022-12-23T00:33:44.558Z,0
2022-12-23T00:35:00.678Z,0
2022-12-23T00:36:17.783Z,0
2022-12-23T00:37:33.909Z,0
2022-12-23T00:38:50.030Z,0
2022-12-23T00:40:07.135Z,0
2022-12-23T00:41:24.240Z,0
2022-12-23T00:42:41.344Z,0
2022-12-23T00:43:58.449Z,0
2022-12-23T00:45:15.554Z,0
2022-12-23T00:46:32.659Z,0
2022-12-23T00:47:49.763Z,0
2022-12-23T00:49:06.868Z,0
2022-12-23T00:50:23.973Z,0
2022-12-23T00:51:41.078Z,0
2022-12-23T00:52:58.182Z,0
2022-12-23T00:54:15.287Z,0
2022-12-23T00:55:31.407Z,0
2022-12-23T00:56:48.512Z,0
2022-12-23T00:58:05.617Z,0
2022-12-23T00:59:22.722Z,0
2022-12-23T01:00:39.826Z,0
2022-12-23T01:01:56.931Z,0
2022-12-23T01:03:14.037Z,0
2022-12-23T01:04:30.163Z,0
2022-12-23T01:05:46.284Z,0
2022-12-23T01:07:02.409Z,0
2022-12-23T01:08:18.530Z,0
2022-12-23T01:09:35.635Z,0
2022-12-23T01:10:52.739Z,0
2022-12-23T01:12:09.844Z,0
2022-12-23T01:13:26.948Z,0
2022-12-23T01:14:44.053Z,0
2022-12-23T01:16:01.157Z,0
2022-12-23T01:17:18.262Z,0
2022-12-23T01:18:35.367Z,0
2022-12-23T01:19:52.471Z,0
2022-12-23T01:21:09.576Z,0
2022-12-23T01:22:26.680Z,0
2022-12-23T01:23:43.785Z,0
2022-12-23T01:24:59.905Z,0
2022-12-23T01:26:17.010Z,0
2022-12-23T01:27:34.115Z,0
2022-12-23T01:28:51.219Z,0
2022-12-23T01:30:08.324Z,0
2022-12-23T01:31:25.428Z,0
2022-12-23T01:32:42.533Z,0
2022-12-23T01:33:58.659Z,0
2022-12-23T01:35:14.779Z,0
2022-12-23T01:36:31.884Z,0
2022-12-23T01:37:48.010Z,0
2022-12-23T01:39:04.131Z,0
2022-12-23T01:40:20.252Z,0
2022-12-23T01:41:37.357Z,0
2022-12-23T01:42:54.461Z,0
2022-12-23T01:44:11.566Z,0
2022-12-23T01:45:28.670Z,0
2022-12-23T01:46:45.775Z,0
2022-12-23T01:49:19.985Z,0
2022-12-23T01:50:37.089Z,0
2022-12-23T01:51:54.194Z,0
2022-12-23T01:53:11.299Z,0
2022-12-23T01:54:28.403Z,0
2022-12-23T01:55:45.509Z,0
2022-12-23T01:57:01.629Z,0
2022-12-23T01:58:18.734Z,0
2022-12-23T01:59:35.838Z,0
2022-12-23T02:00:52.943Z,0
2022-12-23T02:02:10.048Z,0
2022-12-23T02:03:27.153Z,0
2022-12-23T02:04:44.258Z,0
2022-12-23T02:06:00.383Z,0
2022-12-23T02:07:16.504Z,0
2022-12-23T02:08:32.630Z,0
2022-12-23T02:09:48.751Z,0
2022-12-23T02:11:05.855Z,0
2022-12-23T02:12:22.960Z,0
2022-12-23T02:13:40.066Z,0
2022-12-23T02:14:57.170Z,0
2022-12-23T02:16:14.275Z,0
2022-12-23T02:17:31.379Z,0
2022-12-23T02:18:48.484Z,0
2022-12-23T02:20:05.589Z,0
2022-12-23T02:21:22.693Z,0
2022-12-23T02:22:39.798Z,0
2022-12-23T02:23:56.902Z,0
2022-12-23T02:25:14.007Z,0
2022-12-23T02:26:30.128Z,0
2022-12-23T02:27:47.232Z,0
2022-12-23T02:29:04.337Z,0
2022-12-23T02:30:21.442Z,0
2022-12-23T02:31:38.546Z,0
2022-12-23T02:32:55.651Z,0
2022-12-23T02:34:12.756Z,0
2022-12-23T02:35:28.882Z,0
2022-12-23T02:36:45.002Z,0
2022-12-23T02:38:02.107Z,0
2022-12-23T02:39:18.233Z,0
2022-12-23T02:40:34.354Z,0
2022-12-23T02:41:51.458Z,0
2022-12-23T02:43:08.563Z,0
2022-12-23T02:44:25.667Z,0
2022-12-23T02:45:42.772Z,0
2022-12-23T02:46:59.877Z,0
2022-12-23T02:48:16.982Z,0
2022-12-23T02:49:34.086Z,0
2022-12-23T02:50:51.191Z,0
2022-12-23T02:52:08.295Z,0
2022-12-23T02:53:25.400Z,0
2022-12-23T02:54:42.504Z,0
2022-12-23T02:55:59.609Z,0
2022-12-23T02:57:15.730Z,0
2022-12-23T02:58:32.834Z,0
2022-12-23T02:59:49.939Z,0
2022-12-23T03:01:07.044Z,0
2022-12-23T03:02:24.148Z,0
2022-12-23T03:03:41.253Z,0
2022-12-23T03:04:58.357Z,0
2022-12-23T03:06:14.483Z,0
2022-12-23T03:07:30.604Z,0
2022-12-23T03:08:47.709Z,0
2022-12-23T03:10:04.813Z,0
2022-12-23T03:11:20.939Z,0
2022-12-23T03:12:37.060Z,0
2022-12-23T03:13:54.165Z,0
2022-12-23T03:15:11.270Z,0
2022-12-23T03:16:28.374Z,0
2022-12-23T03:17:45.479Z,0
2022-12-23T03:19:02.584Z,0
2022-12-23T03:20:19.689Z,0
2022-12-23T03:21:36.793Z,0
2022-12-23T03:22:53.898Z,0
2022-12-23T03:24:11.003Z,0
2022-12-23T03:25:28.107Z,0
2022-12-23T03:26:45.212Z,0
2022-12-23T03:28:02.317Z,0
2022-12-23T03:29:18.437Z,0
2022-12-23T03:30:35.542Z,0
2022-12-23T03:31:52.646Z,0
2022-12-23T03:33:09.751Z,0
2022-12-23T03:34:26.856Z,0
2022-12-23T03:35:43.960Z,0
2022-12-23T03:37:01.065Z,0
2022-12-23T03:38:17.191Z,0
2022-12-23T03:39:33.311Z,0
2022-12-23T03:40:49.437Z,0
2022-12-23T03:42:05.558Z,0
2022-12-23T03:43:22.662Z,0
2022-12-23T03:44:39.767Z,0
2022-12-23T03:45:56.871Z,0
2022-12-23T03:47:13.976Z,0
2022-12-23T03:48:31.080Z,0
2022-12-23T03:49:48.185Z,0
2022-12-23T03:51:05.290Z,0
2022-12-23T03:52:22.394Z,0
2022-12-23T03:53:39.499Z,0
2022-12-23T03:54:56.604Z,0
2022-12-23T03:56:13.708Z,0
2022-12-23T03:57:30.813Z,0
2022-12-23T03:58:46.934Z,0
2022-12-23T04:00:04.038Z,0
2022-12-23T04:01:21.144Z,0
2022-12-23T04:02:38.248Z,0
2022-12-23T04:03:55.353Z,0
2022-12-23T04:05:12.458Z,0
2022-12-23T04:06:29.562Z,0
2022-12-23T04:07:45.688Z,0
2022-12-23T04:09:01.809Z,0
2022-12-23T04:10:18.914Z,0
2022-12-23T04:11:35.040Z,0
2022-12-23T04:12:51.161Z,0
2022-12-23T04:14:08.265Z,0
2022-12-23T04:15:25.370Z,0
2022-12-23T04:16:42.475Z,0
2022-12-23T04:17:59.580Z,0
2022-12-23T04:19:16.684Z,0
2022-12-23T04:20:33.789Z,0
2022-12-23T04:21:50.894Z,0
2022-12-23T04:23:07.999Z,0
2022-12-23T04:24:25.103Z,0
2022-12-23T04:25:42.208Z,0
2022-12-23T04:26:59.313Z,0
2022-12-23T04:28:16.418Z,0
2022-12-23T04:29:32.539Z,0
2022-12-23T04:30:49.644Z,0
2022-12-23T04:32:06.748Z,0
2022-12-23T04:33:23.853Z,0
2022-12-23T04:34:40.958Z,0
2022-12-23T04:35:58.062Z,0
2022-12-23T04:37:15.167Z,0
2022-12-23T04:38:31.293Z,0
2022-12-23T04:39:47.414Z,0
2022-12-23T04:41:04.519Z,0
2022-12-23T04:42:20.645Z,0
2022-12-23T04:43:36.765Z,0
2022-12-23T04:44:53.870Z,0
2022-12-23T04:46:10.975Z,0
2022-12-23T04:47:28.079Z,0
2022-12-23T04:48:45.184Z,0
2022-12-23T04:50:02.288Z,0
2022-12-23T04:51:19.393Z,0
2022-12-23T04:52:36.497Z,0
2022-12-23T04:53:53.602Z,0
2022-12-23T04:55:10.707Z,0
2022-12-23T04:56:27.812Z,0
2022-12-23T04:57:44.917Z,0
2022-12-23T04:59:02.021Z,0
2022-12-23T05:00:18.142Z,0
2022-12-23T05:01:35.247Z,0
2022-12-23T05:02:52.351Z,0
2022-12-23T05:04:09.456Z,0
2022-12-23T05:05:26.561Z,0
2022-12-23T05:06:43.666Z,0
2022-12-23T05:08:00.771Z,0
2022-12-23T05:09:16.897Z,0
2022-12-23T05:10:33.018Z,0
2022-12-23T05:11:50.122Z,0
2022-12-23T05:13:06.248Z,0
2022-12-23T05:14:22.369Z,0
2022-12-23T05:15:39.474Z,0
2022-12-23T05:16:56.579Z,0
2022-12-23T05:18:13.684Z,0
2022-12-23T05:19:30.788Z,0
2022-12-23T05:20:47.894Z,0
2022-12-23T05:22:04.998Z,0
2022-12-23T05:23:22.103Z,0
2022-12-23T05:24:39.208Z,0
2022-12-23T05:25:56.312Z,0
2022-12-23T05:27:13.417Z,0
2022-12-23T05:28:30.522Z,0
2022-12-23T05:29:47.627Z,0
2022-12-23T05:31:03.747Z,0
2022-12-23T05:32:20.852Z,0
2022-12-23T05:33:37.957Z,0
2022-12-23T05:34:55.062Z,0
2022-12-23T05:36:12.167Z,0
2022-12-23T05:37:29.271Z,0
2022-12-23T05:38:46.376Z,0
2022-12-23T05:40:02.502Z,0
2022-12-23T05:41:18.623Z,0
2022-12-23T05:42:35.728Z,0
2022-12-23T05:43:52.832Z,0
2022-12-23T05:45:08.958Z,0
2022-12-23T05:46:25.079Z,0
2022-12-23T05:47:42.184Z,0
2022-12-23T05:48:59.289Z,0
2022-12-23T05:50:16.394Z,0
2022-12-23T05:51:33.498Z,0
2022-12-23T05:52:50.603Z,0
2022-12-23T05:54:07.708Z,0
2022-12-23T05:55:24.813Z,0
2022-12-23T05:56:41.917Z,0
2022-12-23T05:57:58.038Z,0
2022-12-23T05:59:15.144Z,0
2022-12-23T06:00:32.249Z,0
2022-12-23T06:01:49.354Z,0
2022-12-23T06:03:06.458Z,0
2022-12-23T06:04:23.563Z,0
2022-12-23T06:05:40.668Z,0
2022-12-23T06:06:57.773Z,0
2022-12-23T06:08:14.877Z,0
2022-12-23T06:09:31.983Z,0
2022-12-23T06:10:49.087Z,0
2022-12-23T06:12:06.192Z,0
2022-12-23T06:13:23.297Z,0
2022-12-23T06:14:39.418Z,0
2022-12-23T06:15:56.522Z,0
2022-12-23T06:17:13.627Z,0
2022-12-23T06:18:30.732Z,0
2022-12-23T06:19:47.837Z,0
2022-12-23T06:21:04.942Z,0
2022-12-23T06:22:22.046Z,0
2022-12-23T06:23:39.151Z,0
2022-12-23T06:24:56.256Z,0
2022-12-23T06:26:13.361Z,0
2022-12-23T06:27:30.465Z,0
2022-12-23T06:28:47.570Z,0
2022-12-23T06:30:04.675Z,0
2022-12-23T06:31:20.796Z,0
2022-12-23T06:32:37.901Z,0
2022-12-23T06:33:55.006Z,0
2022-12-23T06:35:12.110Z,0
2022-12-23T06:36:29.215Z,0
2022-12-23T06:37:46.320Z,0
2022-12-23T06:39:03.425Z,0
2022-12-23T06:40:20.529Z,0
2022-12-23T06:41:37.634Z,0
2022-12-23T06:42:54.739Z,0
2022-12-23T06:44:11.845Z,0
2022-12-23T06:45:28.950Z,0
2022-12-23T06:46:46.054Z,0
2022-12-23T06:48:02.175Z,0
2022-12-23T06:49:18.301Z,0
2022-12-23T06:50:34.422Z,0
2022-12-23T06:51:51.527Z,0
2022-12-23T06:53:07.653Z,0
2022-12-23T06:54:23.774Z,0
2022-12-23T06:55:40.878Z,0
2022-12-23T06:56:57.983Z,0
2022-12-23T06:58:15.088Z,0
2022-12-23T06:59:32.193Z,0
2022-12-23T07:00:49.298Z,0
2022-12-23T07:02:06.402Z,0
2022-12-23T07:03:23.508Z,0
2022-12-23T07:04:40.613Z,0
2022-12-23T07:05:57.717Z,0
2022-12-23T07:07:14.822Z,0
2022-12-23T07:08:31.927Z,0
2022-12-23T07:09:49.032Z,0
2022-12-23T07:11:05.153Z,0
2022-12-23T07:12:22.258Z,0
2022-12-23T07:13:39.362Z,0
2022-12-23T07:14:56.467Z,0
2022-12-23T07:16:13.572Z,0
2022-12-23T07:17:30.676Z,0
2022-12-23T07:18:47.781Z,0
2022-12-23T07:20:03.907Z,0
2022-12-23T07:21:20.028Z,0
2022-12-23T07:22:37.133Z,0
2022-12-23T07:23:53.258Z,0
2022-12-23T07:25:09.379Z,0
2022-12-23T07:26:26.484Z,0
2022-12-23T07:27:43.589Z,0
2022-12-23T07:29:00.694Z,0
2022-12-23T07:30:17.798Z,0
2022-12-23T07:31:34.903Z,0
2022-12-23T07:32:52.008Z,0
2022-12-23T07:34:09.112Z,0
2022-12-23T07:35:26.217Z,0
2022-12-23T07:36:43.322Z,0
2022-12-23T07:38:00.427Z,0
2022-12-23T07:39:17.531Z,5
2022-12-23T07:40:34.636Z,0
2022-12-23T07:41:50.757Z,5
2022-12-23T07:43:07.862Z,5
2022-12-23T07:44:24.966Z,5
2022-12-23T07:45:42.071Z,5
2022-12-23T07:46:59.176Z,5
2022-12-23T07:48:16.279Z,5
2022-12-23T07:49:33.383Z,5
2022-12-23T07:50:49.509Z,5
2022-12-23T07:52:05.630Z,5
2022-12-23T07:53:22.735Z,5
2022-12-23T07:54:38.861Z,5
2022-12-23T07:55:54.982Z,5
2022-12-23T07:57:12.086Z,5
2022-12-23T07:58:29.191Z,5
2022-12-23T07:59:46.296Z,5
2022-12-23T08:01:03.400Z,5
2022-12-23T08:02:20.505Z,5
2022-12-23T08:03:37.610Z,5
2022-12-23T08:04:54.715Z,11
2022-12-23T08:06:11.819Z,11
2022-12-23T08:07:28.922Z,11
2022-12-23T08:08:46.027Z,11
2022-12-23T08:10:03.131Z,11
2022-12-23T08:11:20.236Z,11
2022-12-23T08:12:36.357Z,11
2022-12-23T08:13:53.461Z,11
2022-12-23T08:15:10.566Z,16
2022-12-23T08:16:27.671Z,16
2022-12-23T08:17:44.776Z,16
2022-12-23T08:19:01.881Z,11
2022-12-23T08:20:18.985Z,11
2022-12-23T08:21:35.111Z,16
2022-12-23T08:22:51.232Z,16
2022-12-23T08:24:08.337Z,16
2022-12-23T08:25:25.441Z,16
2022-12-23T08:26:42.546Z,11
2022-12-23T08:27:59.651Z,11
2022-12-23T08:29:16.756Z,16
2022-12-23T08:30:33.860Z,16
2022-12-23T08:31:50.965Z,16
2022-12-23T08:33:07.091Z,16
2022-12-23T08:34:23.212Z,16
2022-12-23T08:35:40.316Z,16
2022-12-23T08:36:57.421Z,16
2022-12-23T08:38:14.526Z,16
2022-12-23T08:39:31.631Z,16
2022-12-23T08:40:48.736Z,22
2022-12-23T08:42:05.840Z,22
2022-12-23T08:43:22.945Z,22
2022-12-23T08:44:40.050Z,22
2022-12-23T08:45:57.155Z,22
2022-12-23T08:47:14.260Z,22
2022-12-23T08:48:31.365Z,22
2022-12-23T08:49:48.470Z,16
2022-12-23T08:51:04.590Z,16
2022-12-23T08:52:21.696Z,22
2022-12-23T08:53:38.800Z,22
2022-12-23T08:54:55.905Z,28
2022-12-23T08:56:13.010Z,28
2022-12-23T08:57:30.114Z,33
2022-12-23T08:58:47.220Z,39
2022-12-23T09:00:03.346Z,33
2022-12-23T09:01:19.467Z,28
2022-12-23T09:02:36.572Z,33
2022-12-23T09:03:52.698Z,33
2022-12-23T09:05:08.818Z,33
2022-12-23T09:06:25.923Z,28
2022-12-23T09:07:43.029Z,28
2022-12-23T09:09:00.134Z,33
2022-12-23T09:10:17.238Z,33
2022-12-23T09:11:34.343Z,33
2022-12-23T09:12:51.448Z,28
2022-12-23T09:14:08.552Z,22
2022-12-23T09:15:25.657Z,28
2022-12-23T09:16:42.762Z,33
2022-12-23T09:17:59.867Z,39
2022-12-23T09:19:16.971Z,45
2022-12-23T09:20:34.076Z,45
2022-12-23T09:21:50.197Z,45
2022-12-23T09:23:07.302Z,33
2022-12-23T09:24:24.406Z,28
2022-12-23T09:25:41.511Z,33
2022-12-23T09:26:58.616Z,33
2022-12-23T09:28:15.720Z,33
2022-12-23T09:29:32.825Z,39
2022-12-23T09:30:49.930Z,39
2022-12-23T09:32:07.035Z,45
2022-12-23T09:33:24.139Z,45
2022-12-23T09:34:41.244Z,39
2022-12-23T09:35:58.348Z,39
2022-12-23T09:37:15.453Z,33
2022-12-23T09:38:31.574Z,33
2022-12-23T09:39:48.679Z,33
2022-12-23T09:41:05.784Z,39
2022-12-23T09:42:22.888Z,33
2022-12-23T09:43:39.993Z,33
2022-12-23T09:44:57.098Z,28
2022-12-23T09:46:14.202Z,28
2022-12-23T09:47:31.307Z,28
2022-12-23T09:48:48.412Z,28
2022-12-23T09:50:05.516Z,28
2022-12-23T09:51:22.621Z,39
2022-12-23T09:52:39.726Z,39
2022-12-23T09:53:56.830Z,39
2022-12-23T09:55:12.951Z,33
2022-12-23T09:56:30.056Z,33
2022-12-23T09:57:47.160Z,28
2022-12-23T09:59:04.265Z,28
2022-12-23T10:00:21.370Z,28
2022-12-23T10:01:38.474Z,39
2022-12-23T10:02:55.579Z,45
2022-12-23T10:04:12.684Z,50
2022-12-23T10:05:29.789Z,50
2022-12-23T10:06:46.894Z,45
2022-12-23T10:08:03.998Z,50
2022-12-23T10:09:21.103Z,73
2022-12-23T10:10:38.209Z,67
2022-12-23T10:11:54.329Z,67
2022-12-23T10:13:11.434Z,78
2022-12-23T10:14:28.539Z,61
2022-12-23T10:15:44.660Z,61
2022-12-23T10:17:01.765Z,56
2022-12-23T10:18:17.891Z,50
2022-12-23T10:19:34.012Z,56
2022-12-23T10:20:50.138Z,56
2022-12-23T10:22:06.258Z,61
2022-12-23T10:23:23.363Z,78
2022-12-23T10:24:40.468Z,95
2022-12-23T10:25:57.572Z,90
2022-12-23T10:27:14.677Z,73
2022-12-23T10:28:31.781Z,78
2022-12-23T10:29:48.886Z,90
2022-12-23T10:31:05.991Z,95
2022-12-23T10:32:23.096Z,112
2022-12-23T10:33:40.200Z,112
2022-12-23T10:34:57.305Z,118
2022-12-23T10:36:14.409Z,106
2022-12-23T10:37:31.514Z,112
2022-12-23T10:38:47.634Z,101
2022-12-23T10:40:04.739Z,95
2022-12-23T10:41:21.843Z,90
2022-12-23T10:42:38.946Z,90
2022-12-23T10:43:56.051Z,101
2022-12-23T10:45:13.155Z,135
2022-12-23T10:46:30.260Z,140
2022-12-23T10:47:47.364Z,129
2022-12-23T10:49:04.469Z,118
2022-12-23T10:50:21.573Z,106
2022-12-23T10:51:38.678Z,101
2022-12-23T10:52:55.783Z,95
2022-12-23T10:54:12.888Z,106
2022-12-23T10:55:29.008Z,101
2022-12-23T10:56:46.113Z,95
2022-12-23T10:58:03.218Z,90
2022-12-23T10:59:20.322Z,90
2022-12-23T11:00:37.427Z,90
2022-12-23T11:01:54.532Z,101
2022-12-23T11:03:11.636Z,106
2022-12-23T11:04:28.741Z,95
2022-12-23T11:05:45.846Z,84
2022-12-23T11:07:02.951Z,78
2022-12-23T11:09:37.160Z,73
2022-12-23T11:10:54.264Z,73
2022-12-23T11:12:10.385Z,67
2022-12-23T11:13:27.490Z,61
2022-12-23T11:14:44.594Z,61
2022-12-23T11:16:01.699Z,56
2022-12-23T11:17:18.804Z,56
2022-12-23T11:18:35.908Z,61
2022-12-23T11:19:53.013Z,56
2022-12-23T11:21:10.118Z,61
2022-12-23T11:22:27.222Z,56
2022-12-23T11:23:44.327Z,56
2022-12-23T11:25:01.431Z,50
2022-12-23T11:26:18.536Z,56
2022-12-23T11:27:35.640Z,73
2022-12-23T11:28:51.761Z,78
2022-12-23T11:30:08.866Z,84
2022-12-23T11:31:25.970Z,101
2022-12-23T11:32:42.096Z,112
2022-12-23T11:33:58.217Z,101
2022-12-23T11:35:14.343Z,90
2022-12-23T11:36:30.463Z,90
2022-12-23T11:37:47.568Z,101
2022-12-23T11:39:04.673Z,106
2022-12-23T11:40:21.777Z,112
2022-12-23T11:41:38.882Z,118
2022-12-23T11:42:55.987Z,118
2022-12-23T11:44:13.091Z,112
2022-12-23T11:45:30.196Z,106
2022-12-23T11:46:47.301Z,95
2022-12-23T11:48:04.405Z,78
2022-12-23T11:49:21.510Z,61
2022-12-23T11:50:38.614Z,50
2022-12-23T11:51:55.719Z,45
2022-12-23T11:53:11.839Z,45
2022-12-23T11:54:28.944Z,50
2022-12-23T11:55:46.049Z,61
2022-12-23T11:57:03.153Z,73
2022-12-23T11:58:20.257Z,90
2022-12-23T11:59:37.362Z,101
2022-12-23T12:00:54.466Z,112
2022-12-23T12:02:11.571Z,123
2022-12-23T12:03:28.676Z,135
2022-12-23T12:04:45.781Z,140
2022-12-23T12:06:02.885Z,146
2022-12-23T12:07:19.990Z,146
2022-12-23T12:08:37.094Z,146
2022-12-23T12:09:53.215Z,140
2022-12-23T12:11:10.320Z,129
2022-12-23T12:12:27.424Z,112
2022-12-23T12:13:43.550Z,90
2022-12-23T12:14:59.670Z,73
2022-12-23T12:16:15.796Z,67
2022-12-23T12:17:31.917Z,61
2022-12-23T12:18:49.022Z,56
2022-12-23T12:20:06.126Z,56
2022-12-23T12:21:23.231Z,56
2022-12-23T12:22:40.336Z,61
2022-12-23T12:23:57.440Z,61
2022-12-23T12:25:14.545Z,61
2022-12-23T12:26:31.649Z,61
2022-12-23T12:27:48.754Z,61
2022-12-23T12:29:05.859Z,56
2022-12-23T12:30:22.963Z,56
2022-12-23T12:31:40.068Z,56
2022-12-23T12:32:57.172Z,56
2022-12-23T12:34:14.277Z,67
2022-12-23T12:35:30.398Z,78
2022-12-23T12:36:47.503Z,90
2022-12-23T12:38:04.607Z,106
2022-12-23T12:39:21.712Z,118
2022-12-23T12:40:38.817Z,123
2022-12-23T12:41:55.921Z,140
2022-12-23T12:43:12.047Z,146
2022-12-23T12:44:28.168Z,140
2022-12-23T12:45:45.272Z,140
2022-12-23T12:47:02.377Z,135
2022-12-23T12:48:18.503Z,123
2022-12-23T12:49:34.624Z,112
2022-12-23T12:50:51.728Z,95
2022-12-23T12:52:08.833Z,90
2022-12-23T12:53:25.938Z,90
2022-12-23T12:54:43.042Z,84
2022-12-23T12:56:00.147Z,78
2022-12-23T12:57:17.252Z,73
2022-12-23T12:58:34.357Z,56
2022-12-23T12:59:51.462Z,39
2022-12-23T13:01:08.566Z,33
2022-12-23T13:02:25.671Z,28
2022-12-23T13:03:42.776Z,28
2022-12-23T13:04:59.881Z,28
2022-12-23T13:06:16.002Z,33
2022-12-23T13:07:33.106Z,39
2022-12-23T13:08:50.211Z,50
2022-12-23T13:10:07.316Z,67
2022-12-23T13:11:24.421Z,84
2022-12-23T13:12:41.526Z,95
2022-12-23T13:13:58.631Z,84
2022-12-23T13:15:14.757Z,67
2022-12-23T13:16:30.878Z,50
2022-12-23T13:17:47.004Z,39
2022-12-23T13:19:03.125Z,33
2022-12-23T13:20:20.229Z,33
2022-12-23T13:21:37.334Z,39
2022-12-23T13:22:54.439Z,39
2022-12-23T13:24:11.543Z,39
2022-12-23T13:25:28.649Z,33
2022-12-23T13:26:45.753Z,28
2022-12-23T13:28:02.858Z,28
2022-12-23T13:29:19.962Z,33
2022-12-23T13:30:37.067Z,39
2022-12-23T13:31:54.172Z,61
2022-12-23T13:33:11.276Z,101
2022-12-23T13:34:28.381Z,123
2022-12-23T13:35:44.502Z,123
2022-12-23T13:37:01.607Z,101
2022-12-23T13:38:18.712Z,73
2022-12-23T13:39:35.817Z,56
2022-12-23T13:40:52.922Z,39
2022-12-23T13:42:10.026Z,28
2022-12-23T13:43:27.131Z,22
2022-12-23T13:44:43.257Z,16
2022-12-23T13:45:59.378Z,11
2022-12-23T13:47:16.483Z,16
2022-12-23T13:48:33.588Z,16
2022-12-23T13:49:50.693Z,22
2022-12-23T13:51:07.798Z,33
2022-12-23T13:52:23.924Z,33
2022-12-23T13:53:40.045Z,39
2022-12-23T13:54:57.149Z,39
2022-12-23T13:56:14.254Z,39
2022-12-23T13:57:31.359Z,39
2022-12-23T13:58:48.463Z,39
2022-12-23T14:00:05.568Z,56
2022-12-23T14:01:22.673Z,73
2022-12-23T14:03:56.883Z,118
2022-12-23T14:05:13.988Z,135
2022-12-23T14:06:31.092Z,135
2022-12-23T14:07:48.197Z,129
2022-12-23T14:09:05.302Z,112
2022-12-23T14:10:21.423Z,101
2022-12-23T14:11:38.527Z,90
2022-12-23T14:12:55.632Z,78
2022-12-23T14:14:12.737Z,73
2022-12-23T14:15:29.841Z,67
2022-12-23T14:16:46.946Z,50
2022-12-23T14:18:04.051Z,39
2022-12-23T14:19:21.156Z,33
2022-12-23T14:20:38.261Z,33
2022-12-23T14:21:55.365Z,39
2022-12-23T14:23:12.471Z,33
2022-12-23T14:24:29.576Z,28
2022-12-23T14:25:46.681Z,16
2022-12-23T14:27:02.802Z,16
2022-12-23T14:28:19.907Z,16
2022-12-23T14:29:37.012Z,11
2022-12-23T14:30:54.116Z,11
2022-12-23T14:32:11.221Z,11
2022-12-23T14:33:27.342Z,11
2022-12-23T14:34:44.447Z,11
2022-12-23T14:36:01.552Z,11
2022-12-23T14:37:18.657Z,16
2022-12-23T14:38:35.762Z,28
2022-12-23T14:39:52.866Z,33
2022-12-23T14:41:09.971Z,22
2022-12-23T14:42:27.076Z,16
2022-12-23T14:43:44.181Z,11
2022-12-23T14:45:01.285Z,5
2022-12-23T14:46:18.390Z,5
2022-12-23T14:47:35.495Z,5
2022-12-23T14:48:52.600Z,5
2022-12-23T14:50:08.721Z,5
2022-12-23T14:51:25.825Z,5
2022-12-23T14:52:42.930Z,5
2022-12-23T14:54:00.035Z,5
2022-12-23T14:55:17.141Z,0
2022-12-23T14:56:34.245Z,0
2022-12-23T14:57:51.350Z,0
2022-12-23T14:59:08.455Z,0
2022-12-23T15:00:25.560Z,5
2022-12-23T15:01:42.665Z,0
2022-12-23T15:02:59.769Z,0
2022-12-23T15:04:16.874Z,0
2022-12-23T15:05:33.979Z,0
2022-12-23T15:06:50.100Z,0
2022-12-23T15:08:07.204Z,0
2022-12-23T15:09:24.309Z,0
2022-12-23T15:10:41.414Z,0
2022-12-23T15:11:58.519Z,0
2022-12-23T15:13:15.623Z,0
2022-12-23T15:14:32.728Z,0
2022-12-23T15:15:49.833Z,0
2022-12-23T15:17:06.937Z,0
2022-12-23T15:18:24.042Z,0
2022-12-23T15:19:41.147Z,0
2022-12-23T15:20:58.252Z,0
2022-12-23T15:22:15.358Z,0
2022-12-23T15:23:31.478Z,0
2022-12-23T15:24:48.583Z,0
2022-12-23T15:26:05.688Z,0
2022-12-23T15:27:22.793Z,0
2022-12-23T15:28:39.897Z,0
2022-12-23T15:29:57.002Z,0
2022-12-23T15:31:14.107Z,0
2022-12-23T15:32:31.212Z,0
2022-12-23T15:33:48.317Z,0
2022-12-23T15:35:05.421Z,0
2022-12-23T15:36:22.526Z,0
2022-12-23T15:37:39.631Z,0
2022-12-23T15:38:56.735Z,0
2022-12-23T15:40:12.856Z,0
2022-12-23T15:41:29.961Z,0
2022-12-23T15:42:47.066Z,0
2022-12-23T15:44:04.171Z,0
2022-12-23T15:45:21.276Z,0
2022-12-23T15:46:38.380Z,0
2022-12-23T15:47:55.485Z,0
2022-12-23T15:49:12.590Z,0
2022-12-23T15:50:29.695Z,0
2022-12-23T15:51:46.799Z,0
2022-12-23T15:53:03.904Z,0
2022-12-23T15:54:21.009Z,0
2022-12-23T15:55:38.114Z,0
2022-12-23T15:56:54.235Z,0
2022-12-23T15:58:11.339Z,0
2022-12-23T15:59:28.444Z,0
2022-12-23T16:00:45.549Z,0
2022-12-23T16:02:02.655Z,0
2022-12-23T16:03:19.757Z,0
2022-12-23T16:04:36.862Z,0
2022-12-23T16:05:53.967Z,0
2022-12-23T16:07:11.072Z,0
2022-12-23T16:08:28.177Z,0
2022-12-23T16:09:45.281Z,0
2022-12-23T16:11:02.386Z,0
2022-12-23T16:12:19.491Z,0
2022-12-23T16:13:35.611Z,0
2022-12-23T16:14:52.716Z,0
2022-12-23T16:16:09.821Z,0
2022-12-23T16:17:26.925Z,0
2022-12-23T16:18:44.030Z,0
2022-12-23T16:20:01.135Z,0
2022-12-23T16:21:18.239Z,0
2022-12-23T16:22:35.344Z,0
2022-12-23T16:23:52.448Z,0
2022-12-23T16:25:09.553Z,0
2022-12-23T16:26:26.657Z,0
2022-12-23T16:27:43.762Z,0
2022-12-23T16:29:00.867Z,0
2022-12-23T16:30:16.988Z,0
2022-12-23T16:31:34.092Z,0
2022-12-23T16:32:51.197Z,0
2022-12-23T16:34:08.302Z,0
2022-12-23T16:35:25.406Z,0
2022-12-23T16:36:42.510Z,0
2022-12-23T16:37:59.615Z,0
2022-12-23T16:39:16.720Z,0
2022-12-23T16:40:33.825Z,0
2022-12-23T16:41:50.929Z,0
2022-12-23T16:43:08.035Z,0
2022-12-23T16:44:25.139Z,0
2022-12-23T16:45:42.244Z,0
2022-12-23T16:46:58.364Z,0
2022-12-23T16:48:15.469Z,0
2022-12-23T16:49:32.573Z,0
2022-12-23T16:50:49.678Z,0
2022-12-23T16:52:06.783Z,0
2022-12-23T16:53:23.887Z,0
2022-12-23T16:54:40.991Z,0
2022-12-23T16:55:58.096Z,0
2022-12-23T16:57:15.200Z,0
2022-12-23T16:58:32.304Z,0
2022-12-23T16:59:49.409Z,0
2022-12-23T17:01:06.514Z,0
2022-12-23T17:02:23.618Z,0
2022-12-23T17:03:39.739Z,0
2022-12-23T17:04:56.843Z,0
2022-12-23T17:06:13.948Z,0
2022-12-23T17:07:31.052Z,0
2022-12-23T17:08:48.156Z,0
2022-12-23T17:10:05.261Z,0
2022-12-23T17:11:22.365Z,0
2022-12-23T17:12:39.470Z,0
2022-12-23T17:13:56.574Z,0
2022-12-23T17:15:13.679Z,0
2022-12-23T17:16:30.783Z,0
2022-12-23T17:17:47.887Z,0
2022-12-23T17:19:04.992Z,0
2022-12-23T17:20:21.112Z,0
2022-12-23T17:21:38.216Z,0
2022-12-23T17:22:55.321Z,0
2022-12-23T17:24:12.426Z,0
2022-12-23T17:25:29.530Z,0
2022-12-23T17:26:45.656Z,0
2022-12-23T17:28:01.776Z,0
2022-12-23T17:29:18.881Z,0
2022-12-23T17:30:35.985Z,0
2022-12-23T17:31:52.111Z,0
2022-12-23T17:33:08.231Z,0
2022-12-23T17:34:25.336Z,0
2022-12-23T17:35:42.441Z,0
2022-12-23T17:36:59.545Z,0
2022-12-23T17:38:16.650Z,0
2022-12-23T17:39:33.754Z,0
2022-12-23T17:40:50.859Z,0
2022-12-23T17:42:07.963Z,0
2022-12-23T17:43:25.068Z,0
2022-12-23T17:44:42.172Z,0
2022-12-23T17:45:59.276Z,0
2022-12-23T17:47:16.381Z,0
2022-12-23T17:48:33.485Z,0
2022-12-23T17:49:49.606Z,0
2022-12-23T17:51:06.710Z,0
2022-12-23T17:52:23.815Z,0
2022-12-23T17:53:40.919Z,0
2022-12-23T17:54:58.024Z,0
2022-12-23T17:56:15.128Z,0
2022-12-23T17:57:32.232Z,0
2022-12-23T17:58:48.358Z,0
2022-12-23T18:00:04.479Z,0
2022-12-23T18:01:21.583Z,0
2022-12-23T18:02:37.709Z,0
2022-12-23T18:03:53.829Z,0
2022-12-23T18:05:10.934Z,0
2022-12-23T18:06:28.038Z,0
2022-12-23T18:07:45.143Z,0
2022-12-23T18:09:02.247Z,0
2022-12-23T18:10:19.351Z,0
2022-12-23T18:11:36.456Z,0
2022-12-23T18:12:53.560Z,0
2022-12-23T18:14:10.665Z,0
2022-12-23T18:15:27.769Z,0
2022-12-23T18:16:44.874Z,0
2022-12-23T18:18:01.978Z,0
2022-12-23T18:19:19.083Z,0
2022-12-23T18:20:35.203Z,0
2022-12-23T18:21:52.307Z,0
2022-12-23T18:23:09.412Z,0
2022-12-23T18:24:26.516Z,0
2022-12-23T18:25:43.621Z,0
2022-12-23T18:27:00.725Z,0
2022-12-23T18:28:17.830Z,0
2022-12-23T18:29:33.955Z,0
2022-12-23T18:30:50.076Z,0
2022-12-23T18:32:07.180Z,0
2022-12-23T18:33:24.285Z,0
2022-12-23T18:34:40.410Z,0
2022-12-23T18:35:56.531Z,0
2022-12-23T18:37:13.635Z,0
2022-12-23T18:38:30.740Z,0
2022-12-23T18:39:47.844Z,0
2022-12-23T18:41:04.949Z,0
2022-12-23T18:42:22.053Z,0
2022-12-23T18:43:39.158Z,0